sensor_id;sensor_type;location;lat;lon;timestamp;P1;durP1;ratioP1;P2;durP2;ratioP2
4375;SDS011;2202;50.866;12.750;2023-06-22T00:02:16;19.70;;;14.57;;
4375;SDS011;2202;50.866;12.750;2023-06-22T03:16:30;15.73;;;13.97;;
4375;SDS011;2202;50.866;12.750;2023-06-22T03:18:58;16.17;;;14.00;;
4375;SDS011;2202;50.866;12.750;2023-06-22T03:21:26;15.13;;;13.10;;
4375;SDS011;2202;50.866;12.750;2023-06-22T03:23:54;17.07;;;15.17;;
4375;SDS011;2202;50.866;12.750;2023-06-22T03:26:21;16.77;;;13.50;;
4375;SDS011;2202;50.866;12.750;2023-06-22T03:28:51;15.57;;;13.93;;
4375;SDS011;2202;50.866;12.750;2023-06-22T03:31:18;14.70;;;13.00;;
4375;SDS011;2202;50.866;12.750;2023-06-22T03:33:48;16.67;;;15.00;;
4375;SDS011;2202;50.866;12.750;2023-06-22T03:36:15;20.90;;;16.00;;
4375;SDS011;2202;50.866;12.750;2023-06-22T03:38:43;16.40;;;14.77;;
4375;SDS011;2202;50.866;12.750;2023-06-22T03:41:10;21.77;;;14.50;;
4375;SDS011;2202;50.866;12.750;2023-06-22T03:43:37;17.30;;;14.50;;
4375;SDS011;2202;50.866;12.750;2023-06-22T03:46:04;22.30;;;15.70;;
4375;SDS011;2202;50.866;12.750;2023-06-22T03:48:31;17.77;;;15.83;;
4375;SDS011;2202;50.866;12.750;2023-06-22T03:51:00;17.13;;;15.33;;
4375;SDS011;2202;50.866;12.750;2023-06-22T03:53:28;19.43;;;15.43;;
4375;SDS011;2202;50.866;12.750;2023-06-22T03:55:55;17.00;;;15.30;;
4375;SDS011;2202;50.866;12.750;2023-06-22T03:58:22;19.77;;;14.80;;
4375;SDS011;2202;50.866;12.750;2023-06-22T04:00:49;20.13;;;14.93;;
4375;SDS011;2202;50.866;12.750;2023-06-22T04:03:17;22.83;;;15.73;;
4375;SDS011;2202;50.866;12.750;2023-06-22T04:05:45;18.03;;;15.60;;
4375;SDS011;2202;50.866;12.750;2023-06-22T04:08:14;16.73;;;15.13;;
4375;SDS011;2202;50.866;12.750;2023-06-22T04:10:41;19.20;;;14.20;;
4375;SDS011;2202;50.866;12.750;2023-06-22T04:13:08;16.33;;;14.47;;
4375;SDS011;2202;50.866;12.750;2023-06-22T04:15:35;18.50;;;16.10;;
4375;SDS011;2202;50.866;12.750;2023-06-22T04:18:01;17.90;;;16.07;;
4375;SDS011;2202;50.866;12.750;2023-06-22T04:20:28;20.23;;;16.87;;
4375;SDS011;2202;50.866;12.750;2023-06-22T04:22:56;19.67;;;15.37;;
4375;SDS011;2202;50.866;12.750;2023-06-22T04:25:24;22.57;;;17.60;;
4375;SDS011;2202;50.866;12.750;2023-06-22T04:27:51;17.57;;;15.73;;
4375;SDS011;2202;50.866;12.750;2023-06-22T04:30:18;20.40;;;17.10;;
4375;SDS011;2202;50.866;12.750;2023-06-22T04:32:45;17.83;;;15.40;;
4375;SDS011;2202;50.866;12.750;2023-06-22T04:35:22;18.20;;;16.30;;
4375;SDS011;2202;50.866;12.750;2023-06-22T04:37:49;18.73;;;16.77;;
4375;SDS011;2202;50.866;12.750;2023-06-22T04:40:20;19.27;;;16.63;;
4375;SDS011;2202;50.866;12.750;2023-06-22T04:42:48;17.17;;;15.40;;
4375;SDS011;2202;50.866;12.750;2023-06-22T04:45:22;16.33;;;14.77;;
4375;SDS011;2202;50.866;12.750;2023-06-22T04:47:55;17.07;;;15.17;;
4375;SDS011;2202;50.866;12.750;2023-06-22T04:50:22;17.20;;;15.03;;
4375;SDS011;2202;50.866;12.750;2023-06-22T04:52:49;17.47;;;15.00;;
4375;SDS011;2202;50.866;12.750;2023-06-22T04:55:16;16.10;;;14.50;;
4375;SDS011;2202;50.866;12.750;2023-06-22T04:57:44;14.67;;;13.10;;
4375;SDS011;2202;50.866;12.750;2023-06-22T05:00:15;14.40;;;13.10;;
4375;SDS011;2202;50.866;12.750;2023-06-22T05:02:44;16.20;;;14.57;;
4375;SDS011;2202;50.866;12.750;2023-06-22T05:05:12;16.00;;;14.30;;
4375;SDS011;2202;50.866;12.750;2023-06-22T05:10:51;14.87;;;13.33;;
4375;SDS011;2202;50.866;12.750;2023-06-22T05:13:22;15.43;;;13.87;;
4375;SDS011;2202;50.866;12.750;2023-06-22T05:15:56;15.37;;;13.77;;
4375;SDS011;2202;50.866;12.750;2023-06-22T05:18:26;17.20;;;15.47;;
4375;SDS011;2202;50.866;12.750;2023-06-22T05:20:54;19.90;;;15.47;;
4375;SDS011;2202;50.866;12.750;2023-06-22T05:23:21;17.43;;;14.90;;
4375;SDS011;2202;50.866;12.750;2023-06-22T05:25:47;21.20;;;14.70;;
4375;SDS011;2202;50.866;12.750;2023-06-22T05:31:43;15.60;;;13.47;;
4375;SDS011;2202;50.866;12.750;2023-06-22T05:34:09;17.07;;;15.03;;
4375;SDS011;2202;50.866;12.750;2023-06-22T05:36:36;14.87;;;12.47;;
4375;SDS011;2202;50.866;12.750;2023-06-22T05:39:10;13.60;;;12.20;;
4375;SDS011;2202;50.866;12.750;2023-06-22T05:41:38;12.20;;;10.90;;
4375;SDS011;2202;50.866;12.750;2023-06-22T05:44:05;13.43;;;11.80;;
4375;SDS011;2202;50.866;12.750;2023-06-22T05:46:31;14.10;;;12.30;;
4375;SDS011;2202;50.866;12.750;2023-06-22T05:49:00;13.07;;;11.80;;
4375;SDS011;2202;50.866;12.750;2023-06-22T05:51:26;13.50;;;12.13;;
4375;SDS011;2202;50.866;12.750;2023-06-22T05:53:53;13.90;;;12.50;;
4375;SDS011;2202;50.866;12.750;2023-06-22T05:56:19;16.50;;;12.60;;
4375;SDS011;2202;50.866;12.750;2023-06-22T05:58:46;14.93;;;13.20;;
4375;SDS011;2202;50.866;12.750;2023-06-22T06:01:14;13.97;;;12.33;;
4375;SDS011;2202;50.866;12.750;2023-06-22T06:03:41;14.23;;;12.73;;
4375;SDS011;2202;50.866;12.750;2023-06-22T06:06:10;14.80;;;12.70;;
4375;SDS011;2202;50.866;12.750;2023-06-22T06:08:37;15.13;;;11.90;;
4375;SDS011;2202;50.866;12.750;2023-06-22T06:11:04;20.80;;;13.47;;
4375;SDS011;2202;50.866;12.750;2023-06-22T06:13:30;18.07;;;12.97;;
4375;SDS011;2202;50.866;12.750;2023-06-22T06:15:57;15.40;;;12.10;;
4375;SDS011;2202;50.866;12.750;2023-06-22T06:18:24;14.30;;;11.70;;
4375;SDS011;2202;50.866;12.750;2023-06-22T06:20:51;15.60;;;12.90;;
4375;SDS011;2202;50.866;12.750;2023-06-22T06:23:19;14.97;;;12.07;;
4375;SDS011;2202;50.866;12.750;2023-06-22T06:25:46;14.80;;;11.77;;
4375;SDS011;2202;50.866;12.750;2023-06-22T06:28:12;16.77;;;13.30;;
4375;SDS011;2202;50.866;12.750;2023-06-22T06:30:39;17.10;;;13.13;;
4375;SDS011;2202;50.866;12.750;2023-06-22T06:33:06;14.53;;;12.17;;
4375;SDS011;2202;50.866;12.750;2023-06-22T06:35:33;16.30;;;13.23;;
4375;SDS011;2202;50.866;12.750;2023-06-22T06:38:00;19.30;;;13.30;;
4375;SDS011;2202;50.866;12.750;2023-06-22T06:40:28;15.77;;;12.80;;
4375;SDS011;2202;50.866;12.750;2023-06-22T06:42:55;19.10;;;12.03;;
4375;SDS011;2202;50.866;12.750;2023-06-22T06:45:23;20.90;;;12.90;;
4375;SDS011;2202;50.866;12.750;2023-06-22T06:47:50;14.23;;;11.60;;
4375;SDS011;2202;50.866;12.750;2023-06-22T06:50:18;17.63;;;12.43;;
4375;SDS011;2202;50.866;12.750;2023-06-22T06:56:14;17.00;;;12.90;;
4375;SDS011;2202;50.866;12.750;2023-06-22T06:58:42;15.27;;;11.50;;
4375;SDS011;2202;50.866;12.750;2023-06-22T07:01:10;15.43;;;12.00;;
4375;SDS011;2202;50.866;12.750;2023-06-22T07:03:36;16.93;;;12.70;;
4375;SDS011;2202;50.866;12.750;2023-06-22T07:06:03;14.97;;;11.63;;
4375;SDS011;2202;50.866;12.750;2023-06-22T07:08:30;14.93;;;12.00;;
4375;SDS011;2202;50.866;12.750;2023-06-22T07:10:57;15.43;;;11.37;;
4375;SDS011;2202;50.866;12.750;2023-06-22T07:13:25;15.90;;;11.60;;
4375;SDS011;2202;50.866;12.750;2023-06-22T07:15:51;12.33;;;11.03;;
4375;SDS011;2202;50.866;12.750;2023-06-22T07:18:18;15.33;;;12.40;;
4375;SDS011;2202;50.866;12.750;2023-06-22T07:20:45;12.30;;;11.07;;
4375;SDS011;2202;50.866;12.750;2023-06-22T07:23:12;11.10;;;9.93;;
4375;SDS011;2202;50.866;12.750;2023-06-22T07:25:39;12.47;;;11.17;;
4375;SDS011;2202;50.866;12.750;2023-06-22T07:28:06;12.93;;;10.30;;
4375;SDS011;2202;50.866;12.750;2023-06-22T07:30:34;11.40;;;10.23;;
4375;SDS011;2202;50.866;12.750;2023-06-22T07:33:01;11.47;;;10.37;;
4375;SDS011;2202;50.866;12.750;2023-06-22T07:35:31;17.20;;;15.57;;
4375;SDS011;2202;50.866;12.750;2023-06-22T07:37:58;16.50;;;14.87;;
4375;SDS011;2202;50.866;12.750;2023-06-22T07:40:24;11.40;;;10.33;;
4375;SDS011;2202;50.866;12.750;2023-06-22T07:42:52;11.63;;;10.43;;
4375;SDS011;2202;50.866;12.750;2023-06-22T07:45:18;15.83;;;10.17;;
4375;SDS011;2202;50.866;12.750;2023-06-22T07:47:46;12.27;;;10.90;;
4375;SDS011;2202;50.866;12.750;2023-06-22T07:50:13;15.13;;;11.73;;
4375;SDS011;2202;50.866;12.750;2023-06-22T07:52:40;12.03;;;9.90;;
4375;SDS011;2202;50.866;12.750;2023-06-22T07:55:07;11.60;;;10.50;;
4375;SDS011;2202;50.866;12.750;2023-06-22T07:57:34;12.60;;;11.37;;
4375;SDS011;2202;50.866;12.750;2023-06-22T08:00:01;11.47;;;10.37;;
4375;SDS011;2202;50.866;12.750;2023-06-22T08:02:33;12.43;;;10.93;;
4375;SDS011;2202;50.866;12.750;2023-06-22T08:05:01;12.27;;;11.17;;
4375;SDS011;2202;50.866;12.750;2023-06-22T08:07:29;17.33;;;10.60;;
4375;SDS011;2202;50.866;12.750;2023-06-22T08:09:57;10.20;;;9.27;;
4375;SDS011;2202;50.866;12.750;2023-06-22T08:12:24;10.80;;;9.70;;
4375;SDS011;2202;50.866;12.750;2023-06-22T08:14:51;10.77;;;9.87;;
4375;SDS011;2202;50.866;12.750;2023-06-22T08:17:17;10.93;;;9.93;;
4375;SDS011;2202;50.866;12.750;2023-06-22T08:19:44;12.30;;;11.10;;
4375;SDS011;2202;50.866;12.750;2023-06-22T08:22:12;13.10;;;11.17;;
4375;SDS011;2202;50.866;12.750;2023-06-22T08:24:39;12.50;;;10.57;;
4375;SDS011;2202;50.866;12.750;2023-06-22T08:27:06;12.30;;;11.10;;
4375;SDS011;2202;50.866;12.750;2023-06-22T08:29:34;11.40;;;10.33;;
4375;SDS011;2202;50.866;12.750;2023-06-22T08:32:02;14.13;;;9.83;;
4375;SDS011;2202;50.866;12.750;2023-06-22T08:34:29;10.80;;;9.77;;
4375;SDS011;2202;50.866;12.750;2023-06-22T08:36:55;12.90;;;10.83;;
4375;SDS011;2202;50.866;12.750;2023-06-22T08:39:23;16.73;;;10.77;;
4375;SDS011;2202;50.866;12.750;2023-06-22T08:41:51;11.43;;;10.03;;
4375;SDS011;2202;50.866;12.750;2023-06-22T08:44:18;10.50;;;9.50;;
4375;SDS011;2202;50.866;12.750;2023-06-22T08:46:45;13.53;;;10.10;;
4375;SDS011;2202;50.866;12.750;2023-06-22T08:49:12;11.13;;;9.43;;
4375;SDS011;2202;50.866;12.750;2023-06-22T08:51:38;11.03;;;9.93;;
4375;SDS011;2202;50.866;12.750;2023-06-22T08:54:05;11.43;;;10.43;;
4375;SDS011;2202;50.866;12.750;2023-06-22T08:56:33;12.47;;;9.63;;
4375;SDS011;2202;50.866;12.750;2023-06-22T08:59:00;10.60;;;9.60;;
4375;SDS011;2202;50.866;12.750;2023-06-22T09:01:27;11.10;;;10.20;;
4375;SDS011;2202;50.866;12.750;2023-06-22T09:03:53;10.57;;;9.57;;
4375;SDS011;2202;50.866;12.750;2023-06-22T09:06:22;10.33;;;9.43;;
4375;SDS011;2202;50.866;12.750;2023-06-22T09:08:49;9.67;;;8.87;;
4375;SDS011;2202;50.866;12.750;2023-06-22T09:11:16;9.90;;;9.00;;
4375;SDS011;2202;50.866;12.750;2023-06-22T09:13:44;10.27;;;9.17;;
4375;SDS011;2202;50.866;12.750;2023-06-22T09:16:11;10.43;;;9.53;;
4375;SDS011;2202;50.866;12.750;2023-06-22T09:18:37;10.43;;;9.63;;
4375;SDS011;2202;50.866;12.750;2023-06-22T09:21:04;11.83;;;8.77;;
4375;SDS011;2202;50.866;12.750;2023-06-22T09:23:31;10.40;;;9.40;;
4375;SDS011;2202;50.866;12.750;2023-06-22T09:25:57;9.33;;;8.43;;
4375;SDS011;2202;50.866;12.750;2023-06-22T09:28:24;10.70;;;9.70;;
4375;SDS011;2202;50.866;12.750;2023-06-22T09:30:52;10.43;;;9.23;;
4375;SDS011;2202;50.866;12.750;2023-06-22T09:33:24;9.73;;;8.77;;
4375;SDS011;2202;50.866;12.750;2023-06-22T09:35:51;11.97;;;9.00;;
4375;SDS011;2202;50.866;12.750;2023-06-22T09:38:17;11.07;;;9.37;;
4375;SDS011;2202;50.866;12.750;2023-06-22T09:40:44;9.67;;;8.70;;
4375;SDS011;2202;50.866;12.750;2023-06-22T09:43:11;9.83;;;8.93;;
4375;SDS011;2202;50.866;12.750;2023-06-22T09:45:38;9.73;;;8.93;;
4375;SDS011;2202;50.866;12.750;2023-06-22T09:48:06;10.03;;;8.80;;
4375;SDS011;2202;50.866;12.750;2023-06-22T09:50:34;10.80;;;8.83;;
4375;SDS011;2202;50.866;12.750;2023-06-22T09:53:01;10.87;;;9.90;;
4375;SDS011;2202;50.866;12.750;2023-06-22T09:55:28;9.90;;;9.00;;
4375;SDS011;2202;50.866;12.750;2023-06-22T09:57:54;11.20;;;10.20;;
4375;SDS011;2202;50.866;12.750;2023-06-22T10:00:21;10.23;;;9.33;;
4375;SDS011;2202;50.866;12.750;2023-06-22T10:02:48;12.80;;;9.77;;
4375;SDS011;2202;50.866;12.750;2023-06-22T10:05:16;9.73;;;8.73;;
4375;SDS011;2202;50.866;12.750;2023-06-22T10:07:43;10.70;;;9.60;;
4375;SDS011;2202;50.866;12.750;2023-06-22T10:10:10;10.40;;;9.60;;
4375;SDS011;2202;50.866;12.750;2023-06-22T10:12:40;10.63;;;9.60;;
4375;SDS011;2202;50.866;12.750;2023-06-22T10:15:08;11.87;;;10.63;;
4375;SDS011;2202;50.866;12.750;2023-06-22T10:17:35;11.53;;;10.57;;
4375;SDS011;2202;50.866;12.750;2023-06-22T10:20:02;11.77;;;10.67;;
4375;SDS011;2202;50.866;12.750;2023-06-22T10:22:37;10.10;;;9.10;;
4375;SDS011;2202;50.866;12.750;2023-06-22T10:25:05;11.20;;;10.20;;
4375;SDS011;2202;50.866;12.750;2023-06-22T10:27:32;11.00;;;10.03;;
4375;SDS011;2202;50.866;12.750;2023-06-22T10:29:59;10.93;;;9.83;;
4375;SDS011;2202;50.866;12.750;2023-06-22T10:32:26;10.70;;;9.60;;
4375;SDS011;2202;50.866;12.750;2023-06-22T10:34:53;11.67;;;10.53;;
4375;SDS011;2202;50.866;12.750;2023-06-22T10:37:20;11.30;;;10.37;;
4375;SDS011;2202;50.866;12.750;2023-06-22T10:39:48;12.90;;;11.20;;
4375;SDS011;2202;50.866;12.750;2023-06-22T10:42:14;11.43;;;10.40;;
4375;SDS011;2202;50.866;12.750;2023-06-22T10:44:41;10.97;;;10.07;;
4375;SDS011;2202;50.866;12.750;2023-06-22T10:47:09;11.30;;;10.40;;
4375;SDS011;2202;50.866;12.750;2023-06-22T10:49:36;10.77;;;9.77;;
4375;SDS011;2202;50.866;12.750;2023-06-22T10:52:04;13.13;;;11.70;;
4375;SDS011;2202;50.866;12.750;2023-06-22T10:54:32;12.47;;;11.20;;
4375;SDS011;2202;50.866;12.750;2023-06-22T10:57:01;11.23;;;10.33;;
4375;SDS011;2202;50.866;12.750;2023-06-22T10:59:28;14.50;;;11.60;;
4375;SDS011;2202;50.866;12.750;2023-06-22T11:01:55;11.70;;;10.60;;
4375;SDS011;2202;50.866;12.750;2023-06-22T11:04:22;12.37;;;11.30;;
4375;SDS011;2202;50.866;12.750;2023-06-22T11:06:49;12.53;;;11.50;;
4375;SDS011;2202;50.866;12.750;2023-06-22T11:09:16;12.60;;;11.60;;
4375;SDS011;2202;50.866;12.750;2023-06-22T11:11:46;11.90;;;10.47;;
4375;SDS011;2202;50.866;12.750;2023-06-22T11:14:14;12.50;;;11.30;;
4375;SDS011;2202;50.866;12.750;2023-06-22T11:16:40;12.60;;;11.30;;
4375;SDS011;2202;50.866;12.750;2023-06-22T11:19:07;13.73;;;12.27;;
4375;SDS011;2202;50.866;12.750;2023-06-22T11:21:34;12.03;;;11.03;;
4375;SDS011;2202;50.866;12.750;2023-06-22T11:24:00;12.00;;;10.90;;
4375;SDS011;2202;50.866;12.750;2023-06-22T11:26:27;12.03;;;11.03;;
4375;SDS011;2202;50.866;12.750;2023-06-22T11:28:54;11.90;;;10.80;;
4375;SDS011;2202;50.866;12.750;2023-06-22T11:31:22;12.20;;;10.87;;
4375;SDS011;2202;50.866;12.750;2023-06-22T11:33:49;12.73;;;11.50;;
4375;SDS011;2202;50.866;12.750;2023-06-22T11:36:16;14.20;;;12.70;;
4375;SDS011;2202;50.866;12.750;2023-06-22T11:38:43;12.63;;;11.33;;
4375;SDS011;2202;50.866;12.750;2023-06-22T11:41:10;12.23;;;11.23;;
4375;SDS011;2202;50.866;12.750;2023-06-22T11:43:36;14.90;;;10.93;;
4375;SDS011;2202;50.866;12.750;2023-06-22T11:46:03;17.80;;;11.13;;
4375;SDS011;2202;50.866;12.750;2023-06-22T11:48:31;11.70;;;10.60;;
4375;SDS011;2202;50.866;12.750;2023-06-22T11:50:58;11.63;;;10.60;;
4375;SDS011;2202;50.866;12.750;2023-06-22T11:53:26;11.80;;;10.67;;
4375;SDS011;2202;50.866;12.750;2023-06-22T11:55:52;11.43;;;10.40;;
4375;SDS011;2202;50.866;12.750;2023-06-22T11:58:20;10.63;;;9.73;;
4375;SDS011;2202;50.866;12.750;2023-06-22T12:00:47;11.57;;;10.30;;
4375;SDS011;2202;50.866;12.750;2023-06-22T12:03:14;11.40;;;10.30;;
4375;SDS011;2202;50.866;12.750;2023-06-22T12:05:43;11.43;;;9.53;;
4375;SDS011;2202;50.866;12.750;2023-06-22T12:08:09;13.30;;;10.43;;
4375;SDS011;2202;50.866;12.750;2023-06-22T12:10:37;10.67;;;9.77;;
4375;SDS011;2202;50.866;12.750;2023-06-22T12:13:03;11.20;;;10.23;;
4375;SDS011;2202;50.866;12.750;2023-06-22T12:15:30;11.60;;;10.60;;
4375;SDS011;2202;50.866;12.750;2023-06-22T12:17:56;11.50;;;10.53;;
4375;SDS011;2202;50.866;12.750;2023-06-22T12:20:23;10.97;;;10.03;;
4375;SDS011;2202;50.866;12.750;2023-06-22T12:22:51;10.00;;;9.20;;
4375;SDS011;2202;50.866;12.750;2023-06-22T12:25:20;14.63;;;10.07;;
4375;SDS011;2202;50.866;12.750;2023-06-22T12:27:47;10.87;;;9.83;;
4375;SDS011;2202;50.866;12.750;2023-06-22T12:30:15;10.57;;;9.67;;
4375;SDS011;2202;50.866;12.750;2023-06-22T12:32:42;10.30;;;9.30;;
4375;SDS011;2202;50.866;12.750;2023-06-22T12:35:09;11.43;;;10.33;;
4375;SDS011;2202;50.866;12.750;2023-06-22T12:37:38;11.13;;;10.03;;
4375;SDS011;2202;50.866;12.750;2023-06-22T12:40:08;10.70;;;9.80;;
4375;SDS011;2202;50.866;12.750;2023-06-22T12:42:35;11.23;;;10.23;;
4375;SDS011;2202;50.866;12.750;2023-06-22T12:45:02;9.90;;;8.90;;
4375;SDS011;2202;50.866;12.750;2023-06-22T12:47:29;10.63;;;9.63;;
4375;SDS011;2202;50.866;12.750;2023-06-22T12:49:57;10.27;;;9.10;;
4375;SDS011;2202;50.866;12.750;2023-06-22T12:52:23;10.63;;;9.80;;
4375;SDS011;2202;50.866;12.750;2023-06-22T12:54:50;10.23;;;9.20;;
4375;SDS011;2202;50.866;12.750;2023-06-22T12:57:18;10.37;;;9.40;;
4375;SDS011;2202;50.866;12.750;2023-06-22T12:59:45;10.50;;;9.40;;
4375;SDS011;2202;50.866;12.750;2023-06-22T13:02:12;10.33;;;9.43;;
4375;SDS011;2202;50.866;12.750;2023-06-22T13:04:38;9.07;;;8.37;;
4375;SDS011;2202;50.866;12.750;2023-06-22T13:07:05;9.53;;;8.73;;
4375;SDS011;2202;50.866;12.750;2023-06-22T13:09:32;10.43;;;9.63;;
4375;SDS011;2202;50.866;12.750;2023-06-22T13:11:59;10.90;;;9.77;;
4375;SDS011;2202;50.866;12.750;2023-06-22T13:14:27;9.60;;;8.80;;
4375;SDS011;2202;50.866;12.750;2023-06-22T13:16:55;10.40;;;9.40;;
4375;SDS011;2202;50.866;12.750;2023-06-22T13:19:22;11.07;;;10.17;;
4375;SDS011;2202;50.866;12.750;2023-06-22T13:21:49;11.83;;;10.87;;
4375;SDS011;2202;50.866;12.750;2023-06-22T13:24:16;11.10;;;10.10;;
4375;SDS011;2202;50.866;12.750;2023-06-22T13:26:42;11.63;;;9.93;;
4375;SDS011;2202;50.866;12.750;2023-06-22T13:29:09;12.40;;;11.33;;
4375;SDS011;2202;50.866;12.750;2023-06-22T13:31:38;11.73;;;10.67;;
4375;SDS011;2202;50.866;12.750;2023-06-22T13:34:04;12.70;;;11.50;;
4375;SDS011;2202;50.866;12.750;2023-06-22T13:36:31;12.53;;;11.20;;
4375;SDS011;2202;50.866;12.750;2023-06-22T13:38:58;12.53;;;11.43;;
4375;SDS011;2202;50.866;12.750;2023-06-22T13:51:31;13.00;;;11.80;;
4375;SDS011;2202;50.866;12.750;2023-06-22T13:53:58;12.50;;;11.23;;
4375;SDS011;2202;50.866;12.750;2023-06-22T13:56:24;14.97;;;11.70;;
4375;SDS011;2202;50.866;12.750;2023-06-22T13:58:51;14.17;;;12.80;;
4375;SDS011;2202;50.866;12.750;2023-06-22T14:01:18;13.90;;;12.43;;
4375;SDS011;2202;50.866;12.750;2023-06-22T14:03:45;16.70;;;12.10;;
4375;SDS011;2202;50.866;12.750;2023-06-22T14:06:14;12.73;;;11.43;;
4375;SDS011;2202;50.866;12.750;2023-06-22T14:08:42;14.63;;;13.30;;
4375;SDS011;2202;50.866;12.750;2023-06-22T14:11:09;13.13;;;12.00;;
4375;SDS011;2202;50.866;12.750;2023-06-22T14:13:36;14.13;;;12.00;;
4375;SDS011;2202;50.866;12.750;2023-06-22T14:16:03;15.90;;;12.27;;
4375;SDS011;2202;50.866;12.750;2023-06-22T14:18:30;13.60;;;12.30;;
4375;SDS011;2202;50.866;12.750;2023-06-22T14:20:57;12.13;;;11.03;;
4375;SDS011;2202;50.866;12.750;2023-06-22T14:23:24;12.50;;;11.50;;
4375;SDS011;2202;50.866;12.750;2023-06-22T14:25:52;13.57;;;12.17;;
4375;SDS011;2202;50.866;12.750;2023-06-22T14:28:19;14.73;;;11.90;;
4375;SDS011;2202;50.866;12.750;2023-06-22T14:30:46;10.70;;;9.63;;
4375;SDS011;2202;50.866;12.750;2023-06-22T14:33:13;11.70;;;10.30;;
4375;SDS011;2202;50.866;12.750;2023-06-22T14:35:40;12.87;;;11.70;;
4375;SDS011;2202;50.866;12.750;2023-06-22T14:38:06;12.20;;;10.90;;
4375;SDS011;2202;50.866;12.750;2023-06-22T14:40:33;12.30;;;11.30;;
4375;SDS011;2202;50.866;12.750;2023-06-22T14:43:01;12.83;;;11.63;;
4375;SDS011;2202;50.866;12.750;2023-06-22T14:45:28;11.87;;;10.73;;
4375;SDS011;2202;50.866;12.750;2023-06-22T14:47:55;13.50;;;12.20;;
4375;SDS011;2202;50.866;12.750;2023-06-22T14:50:22;12.00;;;10.90;;
4375;SDS011;2202;50.866;12.750;2023-06-22T14:52:49;11.27;;;10.27;;
4375;SDS011;2202;50.866;12.750;2023-06-22T14:55:15;11.73;;;10.53;;
4375;SDS011;2202;50.866;12.750;2023-06-22T14:57:44;13.23;;;11.00;;
4375;SDS011;2202;50.866;12.750;2023-06-22T15:00:13;12.43;;;11.37;;
4375;SDS011;2202;50.866;12.750;2023-06-22T15:02:40;13.67;;;11.60;;
4375;SDS011;2202;50.866;12.750;2023-06-22T15:05:07;11.63;;;10.20;;
4375;SDS011;2202;50.866;12.750;2023-06-22T15:07:34;12.57;;;10.20;;
4375;SDS011;2202;50.866;12.750;2023-06-22T15:10:01;11.70;;;10.50;;
4375;SDS011;2202;50.866;12.750;2023-06-22T15:12:28;11.67;;;10.57;;
4375;SDS011;2202;50.866;12.750;2023-06-22T15:14:55;12.37;;;11.27;;
4375;SDS011;2202;50.866;12.750;2023-06-22T15:17:23;12.80;;;11.57;;
4375;SDS011;2202;50.866;12.750;2023-06-22T15:19:54;13.90;;;11.20;;
4375;SDS011;2202;50.866;12.750;2023-06-22T15:22:21;12.20;;;10.97;;
4375;SDS011;2202;50.866;12.750;2023-06-22T15:24:47;11.30;;;10.30;;
4375;SDS011;2202;50.866;12.750;2023-06-22T15:27:14;13.83;;;11.17;;
4375;SDS011;2202;50.866;12.750;2023-06-22T15:29:41;11.87;;;10.87;;
4375;SDS011;2202;50.866;12.750;2023-06-22T15:32:11;11.73;;;10.63;;
4375;SDS011;2202;50.866;12.750;2023-06-22T15:34:42;11.77;;;10.60;;
4375;SDS011;2202;50.866;12.750;2023-06-22T15:37:09;14.80;;;11.63;;
4375;SDS011;2202;50.866;12.750;2023-06-22T15:39:35;12.40;;;11.13;;
4375;SDS011;2202;50.866;12.750;2023-06-22T15:42:02;11.83;;;10.73;;
4375;SDS011;2202;50.866;12.750;2023-06-22T15:44:29;11.83;;;10.67;;
4375;SDS011;2202;50.866;12.750;2023-06-22T15:46:56;12.20;;;11.20;;
4375;SDS011;2202;50.866;12.750;2023-06-22T15:49:23;14.03;;;11.97;;
4375;SDS011;2202;50.866;12.750;2023-06-22T15:51:51;12.63;;;11.40;;
4375;SDS011;2202;50.866;12.750;2023-06-22T15:54:18;12.07;;;10.27;;
4375;SDS011;2202;50.866;12.750;2023-06-22T15:56:45;12.73;;;11.53;;
4375;SDS011;2202;50.866;12.750;2023-06-22T15:59:12;11.77;;;10.63;;
4375;SDS011;2202;50.866;12.750;2023-06-22T16:01:38;12.23;;;11.13;;
4375;SDS011;2202;50.866;12.750;2023-06-22T16:04:05;12.60;;;11.60;;
4375;SDS011;2202;50.866;12.750;2023-06-22T16:06:32;11.23;;;10.10;;
4375;SDS011;2202;50.866;12.750;2023-06-22T16:09:00;12.17;;;10.63;;
4375;SDS011;2202;50.866;12.750;2023-06-22T16:11:28;11.80;;;10.63;;
4375;SDS011;2202;50.866;12.750;2023-06-22T16:13:55;11.00;;;10.00;;
4375;SDS011;2202;50.866;12.750;2023-06-22T16:16:22;11.60;;;10.70;;
4375;SDS011;2202;50.866;12.750;2023-06-22T16:18:48;11.80;;;10.60;;
4375;SDS011;2202;50.866;12.750;2023-06-22T16:21:15;15.03;;;11.20;;
4375;SDS011;2202;50.866;12.750;2023-06-22T16:23:42;12.63;;;11.33;;
4375;SDS011;2202;50.866;12.750;2023-06-22T16:26:10;11.93;;;10.70;;
4375;SDS011;2202;50.866;12.750;2023-06-22T16:28:37;13.73;;;11.03;;
4375;SDS011;2202;50.866;12.750;2023-06-22T16:31:04;12.27;;;11.30;;
4375;SDS011;2202;50.866;12.750;2023-06-22T16:33:31;11.73;;;10.73;;
4375;SDS011;2202;50.866;12.750;2023-06-22T16:35:57;12.37;;;11.17;;
4375;SDS011;2202;50.866;12.750;2023-06-22T16:38:25;12.03;;;10.90;;
4375;SDS011;2202;50.866;12.750;2023-06-22T16:40:52;11.93;;;10.73;;
4375;SDS011;2202;50.866;12.750;2023-06-22T16:43:21;11.73;;;10.63;;
4375;SDS011;2202;50.866;12.750;2023-06-22T16:45:47;11.63;;;10.53;;
4375;SDS011;2202;50.866;12.750;2023-06-22T16:48:14;12.30;;;11.30;;
4375;SDS011;2202;50.866;12.750;2023-06-22T16:50:41;13.03;;;10.60;;
4375;SDS011;2202;50.866;12.750;2023-06-22T16:53:08;12.63;;;11.43;;
4375;SDS011;2202;50.866;12.750;2023-06-22T16:55:35;11.73;;;10.63;;
4375;SDS011;2202;50.866;12.750;2023-06-22T16:58:03;12.33;;;10.90;;
4375;SDS011;2202;50.866;12.750;2023-06-22T17:00:31;11.53;;;10.53;;
4375;SDS011;2202;50.866;12.750;2023-06-22T17:02:59;11.13;;;10.10;;
4375;SDS011;2202;50.866;12.750;2023-06-22T17:05:31;13.77;;;12.10;;
4375;SDS011;2202;50.866;12.750;2023-06-22T17:08:01;14.60;;;10.73;;
4375;SDS011;2202;50.866;12.750;2023-06-22T17:10:29;11.80;;;10.57;;
4375;SDS011;2202;50.866;12.750;2023-06-22T17:12:57;14.43;;;12.83;;
4375;SDS011;2202;50.866;12.750;2023-06-22T17:15:24;15.00;;;11.77;;
4375;SDS011;2202;50.866;12.750;2023-06-22T17:17:56;14.07;;;11.53;;
4375;SDS011;2202;50.866;12.750;2023-06-22T17:20:23;14.13;;;11.60;;
4375;SDS011;2202;50.866;12.750;2023-06-22T17:22:50;13.40;;;10.83;;
4375;SDS011;2202;50.866;12.750;2023-06-22T17:25:18;12.37;;;11.30;;
4375;SDS011;2202;50.866;12.750;2023-06-22T17:27:47;16.13;;;11.93;;
4375;SDS011;2202;50.866;12.750;2023-06-22T17:30:15;13.00;;;11.43;;
4375;SDS011;2202;50.866;12.750;2023-06-22T17:32:45;13.30;;;11.80;;
4375;SDS011;2202;50.866;12.750;2023-06-22T17:35:14;12.60;;;10.57;;
4375;SDS011;2202;50.866;12.750;2023-06-22T17:37:47;12.70;;;11.40;;
4375;SDS011;2202;50.866;12.750;2023-06-22T17:40:17;12.60;;;11.50;;
4375;SDS011;2202;50.866;12.750;2023-06-22T17:42:45;15.00;;;11.50;;
4375;SDS011;2202;50.866;12.750;2023-06-22T17:45:14;14.20;;;12.03;;
4375;SDS011;2202;50.866;12.750;2023-06-22T17:47:45;14.53;;;11.37;;
4375;SDS011;2202;50.866;12.750;2023-06-22T17:50:14;13.40;;;12.10;;
4375;SDS011;2202;50.866;12.750;2023-06-22T17:52:47;13.33;;;11.93;;
4375;SDS011;2202;50.866;12.750;2023-06-22T17:55:16;15.27;;;13.33;;
4375;SDS011;2202;50.866;12.750;2023-06-22T17:57:45;13.23;;;11.93;;
4375;SDS011;2202;50.866;12.750;2023-06-22T18:00:15;13.10;;;11.73;;
4375;SDS011;2202;50.866;12.750;2023-06-22T18:02:44;14.07;;;12.67;;
4375;SDS011;2202;50.866;12.750;2023-06-22T18:05:12;15.63;;;12.03;;
4375;SDS011;2202;50.866;12.750;2023-06-22T18:07:40;12.20;;;11.00;;
4375;SDS011;2202;50.866;12.750;2023-06-22T18:10:08;13.57;;;12.17;;
4375;SDS011;2202;50.866;12.750;2023-06-22T18:12:36;13.67;;;12.37;;